createdAt,value
2018-02-13T00:00:16.714Z,73.22
2018-02-13T00:02:45.795Z,73.18
2018-02-13T00:05:14.115Z,73.20
2018-02-13T00:07:42.494Z,73.15
2018-02-13T00:10:11.568Z,73.10
2018-02-13T00:12:39.868Z,73.10
2018-02-13T00:15:08.152Z,73.06
2018-02-13T00:17:36.580Z,73.28
2018-02-13T00:20:05.658Z,73.17
2018-02-13T00:22:49.265Z,73.22
2018-02-13T00:25:17.580Z,73.26
2018-02-13T00:27:45.932Z,73.27
2018-02-13T00:30:14.340Z,73.26
2018-02-13T00:32:42.680Z,73.23
2018-02-13T00:35:11.014Z,73.22
2018-02-13T00:37:40.132Z,73.35
2018-02-13T00:40:08.461Z,73.37
2018-02-13T00:42:36.760Z,73.28
2018-02-13T00:45:05.070Z,73.34
2018-02-13T00:47:34.122Z,73.45
2018-02-13T00:50:02.407Z,73.52
2018-02-13T00:52:30.693Z,73.66
2018-02-13T00:54:59.007Z,73.81
2018-02-13T00:57:28.071Z,73.78
2018-02-13T00:59:56.413Z,73.81
2018-02-13T01:02:24.749Z,73.86
2018-02-13T01:04:53.054Z,73.93
2018-02-13T01:07:22.128Z,73.91
2018-02-13T01:09:50.451Z,73.92
2018-02-13T01:12:18.742Z,73.98
2018-02-13T01:14:47.060Z,74.03
2018-02-13T01:17:16.196Z,74.04
2018-02-13T01:19:45.277Z,74.08
2018-02-13T01:22:13.596Z,74.14
2018-02-13T01:24:41.935Z,74.33
2018-02-13T01:27:10.243Z,74.45
2018-02-13T01:29:39.327Z,74.49
2018-02-13T01:32:07.723Z,74.57
2018-02-13T01:34:36.813Z,74.67
2018-02-13T01:37:05.897Z,74.75
2018-02-13T01:39:34.205Z,74.77
2018-02-13T01:42:03.300Z,74.75
2018-02-13T01:44:32.370Z,74.83
2018-02-13T01:47:00.752Z,74.87
2018-02-13T01:49:29.101Z,74.93
2018-02-13T01:51:57.399Z,74.97
2018-02-13T01:54:26.662Z,75.03
2018-02-13T01:56:55.743Z,75.09
2018-02-13T01:59:24.049Z,75.15
2018-02-13T02:01:52.356Z,75.20
2018-02-13T02:04:20.691Z,75.25
2018-02-13T02:06:49.747Z,75.36
2018-02-13T02:09:18.054Z,75.41
2018-02-13T02:11:47.150Z,75.47
2018-02-13T02:14:15.493Z,75.49
2018-02-13T02:16:44.393Z,75.47
2018-02-13T02:19:12.685Z,75.56
2018-02-13T02:21:41.026Z,75.61
2018-02-13T02:24:09.402Z,75.66
2018-02-13T02:26:37.730Z,75.70
2018-02-13T02:29:06.053Z,75.74
2018-02-13T02:31:35.112Z,75.89
2018-02-13T02:34:03.412Z,75.97
2018-02-13T02:36:31.736Z,76.03
2018-02-13T02:39:00.122Z,76.09
2018-02-13T02:41:28.390Z,76.14
2018-02-13T02:43:57.512Z,76.20
2018-02-13T02:46:25.900Z,76.26
2018-02-13T02:48:54.249Z,76.39
2018-02-13T02:51:23.356Z,76.44
2018-02-13T02:53:52.462Z,76.46
2018-02-13T02:56:21.536Z,76.53
2018-02-13T02:58:49.864Z,76.59
2018-02-13T03:01:18.168Z,76.50
2018-02-13T03:03:46.513Z,76.50
2018-02-13T03:06:14.920Z,76.57
2018-02-13T03:08:43.393Z,76.63
2018-02-13T03:11:11.705Z,76.57
2018-02-13T03:13:40.044Z,76.68
2018-02-13T03:16:08.366Z,76.81
2018-02-13T03:18:36.713Z,76.91
2018-02-13T03:21:05.066Z,76.98
2018-02-13T03:23:33.407Z,77.05
2018-02-13T03:26:01.724Z,77.02
2018-02-13T03:28:30.062Z,77.15
2018-02-13T03:30:58.482Z,77.12
2018-02-13T03:33:26.840Z,77.09
2018-02-13T03:35:55.194Z,77.16
2018-02-13T03:38:24.309Z,77.29
2018-02-13T03:40:53.401Z,77.28
2018-02-13T03:43:21.731Z,77.25
2018-02-13T03:45:50.045Z,77.21
2018-02-13T03:48:19.151Z,77.13
2018-02-13T03:50:47.509Z,77.14
2018-02-13T03:53:15.843Z,77.13
2018-02-13T03:55:44.171Z,77.00
2018-02-13T03:58:12.503Z,76.89
2018-02-13T04:00:40.847Z,76.91
2018-02-13T04:03:09.928Z,76.98
2018-02-13T04:05:38.259Z,76.88
2018-02-13T04:08:06.565Z,76.82
2018-02-13T04:10:34.926Z,76.81
2018-02-13T04:13:03.261Z,76.83
2018-02-13T04:15:32.451Z,76.79
2018-02-13T04:18:00.757Z,76.81
2018-02-13T04:20:29.853Z,76.82
2018-02-13T04:22:58.931Z,76.81
2018-02-13T04:25:27.238Z,76.83
2018-02-13T04:27:56.351Z,76.83
2018-02-13T04:30:24.653Z,76.82
2018-02-13T04:32:52.969Z,76.67
2018-02-13T04:35:21.380Z,76.72
2018-02-13T04:37:49.713Z,76.76
2018-02-13T04:40:18.009Z,76.70
2018-02-13T04:42:46.329Z,76.69
2018-02-13T04:45:15.427Z,76.68
2018-02-13T04:47:44.494Z,76.68
2018-02-13T04:50:12.835Z,76.71
2018-02-13T04:52:41.159Z,76.74
2018-02-13T04:55:10.178Z,76.68
2018-02-13T04:57:38.501Z,76.66
2018-02-13T05:00:07.563Z,76.65
2018-02-13T05:02:36.683Z,76.67
2018-02-13T05:05:05.792Z,76.67
2018-02-13T05:07:34.099Z,76.66
2018-02-13T05:10:02.433Z,76.71
2018-02-13T05:12:31.514Z,76.78
2018-02-13T05:14:59.844Z,76.80
2018-02-13T05:17:29.024Z,76.89
2018-02-13T05:19:58.127Z,76.88
2018-02-13T05:22:27.201Z,76.91
2018-02-13T05:24:55.603Z,76.98
2018-02-13T05:27:24.684Z,76.93
2018-02-13T05:29:53.013Z,76.99
2018-02-13T05:32:21.347Z,77.03
2018-02-13T05:34:49.675Z,77.09
2018-02-13T05:37:17.986Z,77.10
2018-02-13T05:39:46.305Z,77.09
2018-02-13T05:42:15.469Z,77.12
2018-02-13T05:44:43.741Z,77.17
2018-02-13T05:47:12.049Z,77.12
2018-02-13T05:49:40.343Z,77.09
2018-02-13T05:52:09.431Z,77.08
2018-02-13T05:54:37.795Z,77.04
2018-02-13T05:57:06.111Z,77.07
2018-02-13T05:59:35.198Z,77.07
2018-02-13T06:02:03.523Z,77.09
2018-02-13T06:04:31.827Z,77.17
2018-02-13T06:07:00.137Z,77.15
2018-02-13T06:09:28.487Z,77.16
2018-02-13T06:11:56.821Z,77.11
2018-02-13T06:14:25.919Z,77.16
2018-02-13T06:16:54.995Z,77.16
2018-02-13T06:19:23.365Z,77.20
2018-02-13T06:21:51.657Z,77.20
2018-02-13T06:24:19.965Z,77.22
2018-02-13T06:26:49.051Z,77.15
2018-02-13T06:29:17.382Z,77.15
2018-02-13T06:31:45.702Z,77.10
2018-02-13T06:34:14.810Z,77.09
2018-02-13T06:36:43.966Z,77.17
2018-02-13T06:39:13.057Z,77.21
2018-02-13T06:41:41.379Z,77.16
2018-02-13T06:44:09.682Z,77.22
2018-02-13T06:46:38.011Z,77.24
2018-02-13T06:49:06.343Z,77.27
2018-02-13T06:51:34.739Z,77.33
2018-02-13T06:54:03.810Z,77.33
2018-02-13T06:56:32.912Z,77.33
2018-02-13T06:59:01.247Z,77.30
2018-02-13T07:01:29.618Z,77.21
2018-02-13T07:03:58.690Z,77.19
2018-02-13T07:06:27.003Z,77.17
2018-02-13T07:08:55.355Z,77.17
2018-02-13T07:11:23.712Z,77.17
2018-02-13T07:13:52.195Z,77.19
2018-02-13T07:16:20.520Z,77.27
2018-02-13T07:18:49.629Z,77.19
2018-02-13T07:21:18.702Z,77.12
2018-02-13T07:23:47.038Z,77.11
2018-02-13T07:26:15.332Z,77.12
2018-02-13T07:28:43.641Z,77.14
2018-02-13T07:31:11.967Z,77.07
2018-02-13T07:33:40.255Z,77.01
2018-02-13T07:36:08.578Z,77.03
2018-02-13T07:38:36.895Z,77.03
2018-02-13T07:41:05.977Z,76.98
2018-02-13T07:43:34.287Z,76.88
2018-02-13T07:46:02.605Z,76.81
2018-02-13T07:48:31.650Z,76.99
2018-02-13T07:51:00.727Z,77.05
2018-02-13T07:53:29.023Z,76.95
2018-02-13T07:55:58.141Z,76.92
2018-02-13T07:58:27.215Z,76.87
2018-02-13T08:00:55.508Z,76.67
2018-02-13T08:03:24.562Z,76.65
2018-02-13T08:05:52.963Z,76.59
2018-02-13T08:08:21.279Z,76.47
2018-02-13T08:10:50.353Z,76.36
2018-02-13T08:13:18.766Z,76.36
2018-02-13T08:15:47.835Z,76.29
2018-02-13T08:18:16.123Z,76.22
2018-02-13T08:20:44.414Z,76.12
2018-02-13T08:23:13.506Z,76.04
2018-02-13T08:25:42.594Z,76.07
2018-02-13T08:28:10.905Z,76.03
2018-02-13T08:30:39.972Z,75.88
2018-02-13T08:33:08.365Z,75.84
2018-02-13T08:35:37.572Z,76.04
2018-02-13T08:38:05.960Z,75.81
2018-02-13T08:40:35.752Z,75.51
2018-02-13T08:43:04.067Z,75.41
2018-02-13T08:45:33.138Z,75.30
2018-02-13T08:48:01.473Z,75.38
2018-02-13T08:50:29.764Z,75.22
2018-02-13T08:52:58.063Z,75.11
2018-02-13T08:55:26.352Z,75.28
2018-02-13T08:57:54.748Z,75.17
2018-02-13T09:00:23.134Z,74.89
2018-02-13T09:02:51.463Z,75.00
2018-02-13T09:05:19.777Z,74.66
2018-02-13T09:07:48.089Z,74.52
2018-02-13T09:10:16.406Z,74.33
2018-02-13T09:12:44.790Z,74.32
2018-02-13T09:15:13.092Z,74.06
2018-02-13T09:17:41.390Z,73.82
2018-02-13T09:20:09.709Z,73.82
2018-02-13T09:22:38.848Z,73.72
2018-02-13T09:25:07.736Z,73.67
2018-02-13T09:27:36.042Z,73.34
2018-02-13T09:30:04.328Z,72.85
2018-02-13T09:32:32.630Z,72.87
2018-02-13T09:35:00.930Z,72.58
2018-02-13T09:37:29.978Z,72.25
2018-02-13T09:39:58.298Z,72.15
2018-02-13T09:42:26.608Z,71.94
2018-02-13T09:44:55.683Z,71.68
2018-02-13T09:47:24.006Z,71.77
2018-02-13T09:49:52.304Z,71.47
2018-02-13T09:52:20.618Z,71.35
2018-02-13T09:54:48.928Z,71.34
2018-02-13T09:57:17.252Z,71.19
2018-02-13T09:59:45.575Z,70.99
2018-02-13T10:02:14.642Z,70.82
2018-02-13T10:04:42.946Z,70.64
2018-02-13T10:07:11.241Z,70.88
2018-02-13T10:09:40.291Z,70.57
2018-02-13T10:12:08.601Z,70.19
2018-02-13T10:14:36.885Z,69.71
2018-02-13T10:17:05.185Z,69.37
2018-02-13T10:19:34.230Z,69.21
2018-02-13T10:22:02.520Z,69.06
2018-02-13T10:24:30.808Z,69.07
2018-02-13T10:26:59.140Z,69.00
2018-02-13T10:29:28.212Z,68.97
2018-02-13T10:31:56.536Z,68.99
2018-02-13T10:34:24.908Z,68.82
2018-02-13T10:36:53.180Z,68.70
2018-02-13T10:39:21.568Z,68.49
2018-02-13T10:41:49.957Z,68.15
2018-02-13T10:44:18.297Z,67.70
2018-02-13T10:46:46.586Z,67.59
2018-02-13T10:49:14.900Z,67.35
2018-02-13T10:51:43.921Z,67.49
2018-02-13T10:54:12.238Z,67.09
2018-02-13T10:56:40.551Z,66.64
2018-02-13T10:59:08.884Z,66.53
2018-02-13T11:01:40.000Z,66.59
2018-02-13T11:04:08.292Z,66.60
2018-02-13T11:06:36.600Z,66.21
2018-02-13T11:09:04.908Z,65.86
2018-02-13T11:11:33.986Z,65.81
2018-02-13T11:14:02.305Z,65.84
2018-02-13T11:16:31.386Z,65.52
2018-02-13T11:19:00.530Z,65.20
2018-02-13T11:21:28.864Z,64.67
2018-02-13T11:23:57.184Z,64.44
2018-02-13T11:26:25.476Z,64.33
2018-02-13T11:28:53.796Z,64.04
2018-02-13T11:31:22.117Z,63.79
2018-02-13T11:33:51.230Z,63.10
2018-02-13T11:36:19.515Z,63.07
2018-02-13T11:38:47.804Z,63.25
2018-02-13T11:41:16.122Z,62.77
2018-02-13T11:43:44.431Z,62.67
2018-02-13T11:46:13.524Z,62.10
2018-02-13T11:48:42.582Z,61.88
2018-02-13T11:51:10.878Z,61.85
2018-02-13T11:53:39.158Z,61.84
2018-02-13T11:56:07.444Z,61.68
2018-02-13T11:58:35.751Z,61.61
2018-02-13T12:01:04.052Z,61.36
2018-02-13T12:03:32.348Z,60.96
2018-02-13T12:06:00.626Z,59.97
2018-02-13T12:08:28.925Z,59.82
2018-02-13T12:10:57.819Z,59.14
2018-02-13T12:13:26.106Z,59.28
2018-02-13T12:15:54.412Z,59.22
2018-02-13T12:18:22.706Z,58.83
2018-02-13T12:20:51.021Z,57.93
2018-02-13T12:23:19.346Z,57.93
2018-02-13T12:25:47.672Z,57.31
2018-02-13T12:28:16.710Z,56.71
2018-02-13T12:30:45.030Z,56.35
2018-02-13T12:33:13.924Z,56.03
2018-02-13T12:35:42.218Z,55.87
2018-02-13T12:38:11.306Z,55.60
2018-02-13T12:40:39.617Z,55.17
2018-02-13T12:43:07.971Z,55.01
2018-02-13T12:45:37.030Z,54.72
2018-02-13T12:48:05.355Z,54.74
2018-02-13T12:50:34.410Z,54.55
2018-02-13T12:53:02.738Z,54.64
2018-02-13T12:55:31.839Z,54.42
2018-02-13T12:58:00.896Z,53.76
2018-02-13T13:00:29.226Z,53.87
2018-02-13T13:02:58.318Z,53.92
2018-02-13T13:05:27.462Z,54.14
2018-02-13T13:07:56.532Z,53.95
2018-02-13T13:10:24.836Z,53.71
2018-02-13T13:12:53.148Z,53.60
2018-02-13T13:15:21.426Z,54.25
2018-02-13T13:17:49.723Z,54.31
2018-02-13T13:20:18.128Z,54.04
2018-02-13T13:22:47.199Z,53.32
2018-02-13T13:25:15.496Z,53.18
2018-02-13T13:27:43.812Z,53.06
2018-02-13T13:30:12.128Z,53.03
2018-02-13T13:32:40.510Z,52.89
2018-02-13T13:35:08.830Z,52.76
2018-02-13T13:37:37.929Z,52.65
2018-02-13T13:40:07.026Z,53.02
2018-02-13T13:42:36.090Z,52.24
2018-02-13T13:45:04.375Z,52.16
2018-02-13T13:47:32.686Z,53.09
2018-02-13T13:50:01.118Z,52.46
2018-02-13T13:52:29.439Z,51.26
2018-02-13T13:54:57.743Z,51.41
2018-02-13T13:57:26.812Z,50.86
2018-02-13T13:59:55.913Z,50.80
2018-02-13T14:02:24.260Z,51.95
2018-02-13T14:04:52.628Z,51.60
2018-02-13T14:07:20.957Z,51.12
2018-02-13T14:09:49.242Z,51.34
2018-02-13T14:12:17.534Z,51.57
2018-02-13T14:14:45.820Z,51.44
2018-02-13T14:17:14.098Z,51.16
2018-02-13T14:19:42.388Z,52.30
2018-02-13T14:22:11.461Z,51.40
2018-02-13T14:24:39.749Z,51.00
2018-02-13T14:27:08.042Z,51.27
2018-02-13T14:29:36.372Z,51.21
2018-02-13T14:32:04.693Z,50.86
2018-02-13T14:34:33.031Z,51.14
2018-02-13T14:37:01.337Z,51.35
2018-02-13T14:39:29.701Z,51.17
2018-02-13T14:41:58.044Z,50.91
2018-02-13T14:44:26.299Z,50.88
2018-02-13T14:46:54.600Z,51.20
2018-02-13T14:49:23.658Z,50.89
2018-02-13T14:51:51.947Z,50.93
2018-02-13T14:54:20.270Z,50.93
2018-02-13T14:56:49.339Z,50.94
2018-02-13T14:59:17.618Z,50.73
2018-02-13T15:01:45.984Z,50.79
2018-02-13T15:04:14.305Z,51.11
2018-02-13T15:06:44.248Z,51.08
2018-02-13T15:09:12.578Z,51.61
2018-02-13T15:11:40.883Z,51.08
2018-02-13T15:14:09.961Z,50.64
2018-02-13T15:16:50.133Z,50.80
2018-02-13T15:19:18.440Z,50.78
2018-02-13T15:21:46.768Z,50.48
2018-02-13T15:24:15.091Z,50.54
2018-02-13T15:26:44.159Z,50.42
2018-02-13T15:29:12.462Z,50.64
2018-02-13T15:31:42.887Z,50.44
2018-02-13T15:34:11.191Z,50.83
2018-02-13T15:36:40.237Z,50.78
2018-02-13T15:39:08.539Z,50.49
2018-02-13T15:41:36.840Z,50.71
2018-02-13T15:44:05.917Z,51.50
2018-02-13T15:46:34.206Z,51.19
2018-02-13T15:49:02.569Z,51.19
2018-02-13T15:51:30.867Z,51.32
2018-02-13T15:53:59.182Z,51.46
2018-02-13T15:56:27.523Z,51.63
2018-02-13T15:58:56.578Z,51.82
2018-02-13T16:01:25.769Z,51.51
2018-02-13T16:03:54.073Z,52.17
2018-02-13T16:06:22.397Z,52.08
2018-02-13T16:08:51.456Z,52.17
2018-02-13T16:11:19.759Z,52.15
2018-02-13T16:13:48.059Z,52.15
2018-02-13T16:16:16.385Z,52.40
2018-02-13T16:18:45.174Z,52.42
2018-02-13T16:21:13.529Z,52.72
2018-02-13T16:23:42.597Z,52.39
2018-02-13T16:26:10.907Z,53.03
2018-02-13T16:28:40.008Z,52.88
2018-02-13T16:31:08.405Z,52.82
2018-02-13T16:33:37.463Z,53.16
2018-02-13T16:36:07.211Z,53.09
2018-02-13T16:38:36.327Z,53.27
2018-02-13T16:41:04.620Z,52.97
2018-02-13T16:43:32.915Z,52.76
2018-02-13T16:46:01.866Z,52.93
2018-02-13T16:48:30.943Z,52.91
2018-02-13T16:50:59.301Z,53.02
2018-02-13T16:53:27.641Z,53.05
2018-02-13T16:55:55.943Z,53.13
2018-02-13T16:58:24.279Z,53.33
2018-02-13T17:00:52.572Z,53.42
2018-02-13T17:03:21.713Z,53.86
2018-02-13T17:05:50.013Z,54.47
2018-02-13T17:08:18.304Z,54.47
2018-02-13T17:10:46.602Z,54.53
2018-02-13T17:13:14.915Z,54.57
2018-02-13T17:15:43.305Z,54.85
2018-02-13T17:18:11.627Z,54.68
2018-02-13T17:20:39.924Z,54.65
2018-02-13T17:23:08.252Z,54.87
2018-02-13T17:25:36.654Z,54.95
2018-02-13T17:28:05.309Z,55.56
2018-02-13T17:30:33.589Z,55.99
2018-02-13T17:33:01.896Z,55.83
2018-02-13T17:35:30.191Z,55.63
2018-02-13T17:37:58.522Z,55.51
2018-02-13T17:40:27.642Z,55.64
2018-02-13T17:42:55.947Z,55.46
2018-02-13T17:45:24.254Z,55.92
2018-02-13T17:47:52.600Z,55.96
2018-02-13T17:50:20.922Z,55.98
2018-02-13T17:52:49.205Z,55.79
2018-02-13T17:55:18.263Z,56.04
2018-02-13T17:57:46.559Z,54.75
2018-02-13T18:00:14.958Z,54.92
2018-02-13T18:02:43.290Z,54.76
2018-02-13T18:05:12.366Z,54.96
2018-02-13T18:07:41.449Z,54.95
2018-02-13T18:10:09.780Z,54.86
2018-02-13T18:12:38.111Z,54.97
2018-02-13T18:15:07.196Z,55.02
2018-02-13T18:17:36.128Z,55.33
2018-02-13T18:20:05.228Z,55.35
2018-02-13T18:22:34.329Z,55.48
2018-02-13T18:25:02.684Z,55.71
2018-02-13T18:27:30.995Z,55.79
2018-02-13T18:30:00.088Z,55.96
2018-02-13T18:32:29.199Z,56.09
2018-02-13T18:34:58.281Z,56.34
2018-02-13T18:37:26.590Z,56.44
2018-02-13T18:39:54.896Z,56.41
2018-02-13T18:42:23.181Z,56.48
2018-02-13T18:44:51.481Z,56.55
2018-02-13T18:47:19.792Z,56.74
2018-02-13T18:49:48.875Z,56.80
2018-02-13T18:54:45.478Z,56.89
2018-02-13T18:57:13.831Z,57.02
2018-02-13T18:59:42.138Z,57.15
2018-02-13T19:02:10.441Z,57.26
2018-02-13T19:04:38.732Z,57.38
2018-02-13T19:07:07.022Z,57.50
2018-02-13T19:09:35.347Z,57.50
2018-02-13T19:12:04.426Z,57.51
2018-02-13T19:14:32.727Z,57.59
2018-02-13T19:19:30.059Z,57.43
2018-02-13T19:21:58.438Z,57.67
2018-02-13T19:24:27.455Z,57.63
2018-02-13T19:26:55.743Z,57.59
2018-02-13T19:29:24.072Z,57.68
2018-02-13T19:31:52.388Z,57.66
2018-02-13T19:34:20.676Z,57.77
2018-02-13T19:36:48.977Z,57.84
2018-02-13T19:39:18.052Z,57.82
2018-02-13T19:41:47.233Z,58.00
2018-02-13T19:44:15.565Z,58.07
2018-02-13T19:46:43.846Z,58.09
2018-02-13T19:49:12.158Z,58.25
2018-02-13T19:51:40.480Z,58.37
2018-02-13T19:54:08.833Z,58.42
2018-02-13T19:56:37.208Z,58.30
2018-02-13T19:59:05.586Z,58.24
2018-02-13T20:01:33.891Z,58.20
2018-02-13T20:04:02.257Z,58.23
2018-02-13T20:06:30.550Z,58.34
2018-02-13T20:08:58.887Z,58.51
2018-02-13T20:11:27.214Z,58.58
2018-02-13T20:13:55.502Z,58.71
2018-02-13T20:16:23.826Z,58.83
2018-02-13T20:18:52.153Z,58.82
2018-02-13T20:21:20.487Z,58.86
2018-02-13T20:23:49.595Z,58.91
2018-02-13T20:26:18.751Z,59.05
2018-02-13T20:28:47.129Z,59.31
2018-02-13T20:31:16.077Z,59.37
2018-02-13T20:33:44.381Z,59.37
2018-02-13T20:36:12.676Z,59.50
2018-02-13T20:38:40.963Z,59.58
2018-02-13T20:41:09.291Z,59.48
2018-02-13T20:43:37.601Z,59.62
2018-02-13T20:46:05.942Z,59.74
2018-02-13T20:48:34.274Z,59.81
2018-02-13T20:51:02.605Z,59.91
2018-02-13T20:53:30.925Z,59.89
2018-02-13T20:55:59.998Z,60.00
2018-02-13T20:58:28.355Z,60.09
2018-02-13T21:00:56.708Z,60.22
2018-02-13T21:03:25.011Z,60.12
2018-02-13T21:05:53.325Z,60.24
2018-02-13T21:08:21.623Z,60.33
2018-02-13T21:10:50.700Z,60.32
2018-02-13T21:13:19.010Z,60.14
2018-02-13T21:15:48.109Z,60.17
2018-02-13T21:18:17.198Z,60.42
2018-02-13T21:20:45.514Z,60.60
2018-02-13T21:23:13.812Z,60.83
2018-02-13T21:25:42.108Z,60.97
2018-02-13T21:28:10.416Z,61.20
2018-02-13T21:30:38.745Z,61.24
2018-02-13T21:33:07.048Z,61.26
2018-02-13T21:35:35.369Z,61.39
2018-02-13T21:38:04.449Z,61.47
2018-02-13T21:40:32.751Z,61.51
2018-02-13T21:43:01.819Z,61.55
2018-02-13T21:45:30.120Z,61.53
2018-02-13T21:47:58.440Z,61.78
2018-02-13T21:50:26.764Z,61.71
2018-02-13T21:52:55.075Z,61.68
2018-02-13T21:55:23.371Z,61.69
2018-02-13T21:57:52.481Z,61.75
2018-02-13T22:00:20.805Z,61.61
2018-02-13T22:02:49.127Z,61.65
2018-02-13T22:05:18.220Z,61.69
2018-02-13T22:07:47.334Z,61.58
2018-02-13T22:10:15.640Z,61.78
2018-02-13T22:12:43.953Z,61.95
2018-02-13T22:15:12.289Z,62.04
2018-02-13T22:17:40.599Z,62.09
2018-02-13T22:20:08.896Z,62.16
2018-02-13T22:22:37.206Z,62.06
2018-02-13T22:25:05.508Z,62.16
2018-02-13T22:27:34.585Z,62.16
2018-02-13T22:30:02.900Z,62.11
2018-02-13T22:32:31.484Z,61.88
2018-02-13T22:34:59.868Z,62.18
2018-02-13T22:37:28.919Z,62.26
2018-02-13T22:39:57.235Z,62.30
2018-02-13T22:42:26.307Z,62.32
2018-02-13T22:44:54.606Z,62.34
2018-02-13T22:47:23.798Z,62.50
2018-02-13T22:49:52.110Z,62.58
2018-02-13T22:52:20.401Z,62.62
2018-02-13T22:54:48.730Z,62.79
2018-02-13T22:57:17.029Z,62.91
2018-02-13T22:59:46.102Z,62.77
2018-02-13T23:02:14.394Z,63.01
2018-02-13T23:04:42.757Z,63.10
2018-02-13T23:07:11.094Z,63.11
2018-02-13T23:09:39.394Z,63.17
2018-02-13T23:12:07.696Z,63.31
2018-02-13T23:14:36.002Z,63.36
2018-02-13T23:17:04.350Z,63.50
2018-02-13T23:19:32.659Z,63.64
2018-02-13T23:22:00.981Z,63.78
2018-02-13T23:24:29.277Z,64.34
2018-02-13T23:26:57.596Z,64.33
2018-02-13T23:29:25.954Z,64.18
2018-02-13T23:31:54.246Z,64.24
2018-02-13T23:34:22.552Z,64.61
2018-02-13T23:36:50.858Z,64.57
2018-02-13T23:39:19.952Z,64.19
2018-02-13T23:41:49.059Z,63.97
2018-02-13T23:44:18.120Z,63.98
2018-02-13T23:46:46.410Z,64.20
2018-02-13T23:49:14.736Z,64.35
2018-02-13T23:51:43.054Z,64.32
2018-02-13T23:54:11.379Z,64.39
2018-02-13T23:56:39.678Z,64.40
2018-02-13T23:59:08.747Z,64.43
